sensor_id;sensor_type;location;lat;lon;timestamp;P1;durP1;ratioP1;P2;durP2;ratioP2
6549;SDS011;15142;48.888;9.134;2023-07-20T00:00:18;8.93;;;2.70;;
6549;SDS011;15142;48.888;9.134;2023-07-20T00:02:49;3.60;;;2.10;;
6549;SDS011;15142;48.888;9.134;2023-07-20T00:05:18;2.30;;;2.10;;
6549;SDS011;15142;48.888;9.134;2023-07-20T00:07:50;2.00;;;1.80;;
6549;SDS011;15142;48.888;9.134;2023-07-20T00:10:21;2.93;;;2.30;;
6549;SDS011;15142;48.888;9.134;2023-07-20T00:12:50;7.73;;;2.10;;
6549;SDS011;15142;48.888;9.134;2023-07-20T00:15:18;3.10;;;2.03;;
6549;SDS011;15142;48.888;9.134;2023-07-20T00:17:47;8.53;;;2.50;;
6549;SDS011;15142;48.888;9.134;2023-07-20T00:20:15;3.20;;;1.60;;
6549;SDS011;15142;48.888;9.134;2023-07-20T00:22:44;5.80;;;1.80;;
6549;SDS011;15142;48.888;9.134;2023-07-20T00:25:13;2.33;;;2.10;;
6549;SDS011;15142;48.888;9.134;2023-07-20T00:27:44;2.77;;;2.07;;
6549;SDS011;15142;48.888;9.134;2023-07-20T00:30:13;2.53;;;1.40;;
6549;SDS011;15142;48.888;9.134;2023-07-20T00:32:43;1.87;;;1.77;;
6549;SDS011;15142;48.888;9.134;2023-07-20T00:35:12;3.27;;;1.50;;
6549;SDS011;15142;48.888;9.134;2023-07-20T00:37:40;6.83;;;2.50;;
6549;SDS011;15142;48.888;9.134;2023-07-20T00:40:09;4.00;;;1.93;;
6549;SDS011;15142;48.888;9.134;2023-07-20T00:42:38;1.83;;;1.70;;
6549;SDS011;15142;48.888;9.134;2023-07-20T00:45:09;2.67;;;2.10;;
6549;SDS011;15142;48.888;9.134;2023-07-20T00:47:36;4.23;;;2.20;;
6549;SDS011;15142;48.888;9.134;2023-07-20T00:50:05;2.07;;;1.87;;
6549;SDS011;15142;48.888;9.134;2023-07-20T00:52:34;2.10;;;1.80;;
6549;SDS011;15142;48.888;9.134;2023-07-20T00:55:04;3.23;;;1.50;;
6549;SDS011;15142;48.888;9.134;2023-07-20T00:57:34;2.10;;;1.90;;
6549;SDS011;15142;48.888;9.134;2023-07-20T01:00:04;7.60;;;1.57;;
6549;SDS011;15142;48.888;9.134;2023-07-20T01:02:39;1.93;;;1.83;;
6549;SDS011;15142;48.888;9.134;2023-07-20T01:05:07;4.90;;;2.13;;
6549;SDS011;15142;48.888;9.134;2023-07-20T01:07:38;1.73;;;1.63;;
6549;SDS011;15142;48.888;9.134;2023-07-20T01:10:16;4.90;;;2.20;;
6549;SDS011;15142;48.888;9.134;2023-07-20T01:12:50;5.70;;;2.60;;
6549;SDS011;15142;48.888;9.134;2023-07-20T01:15:20;7.93;;;2.30;;
6549;SDS011;15142;48.888;9.134;2023-07-20T01:17:52;4.40;;;2.13;;
6549;SDS011;15142;48.888;9.134;2023-07-20T01:20:21;4.40;;;1.80;;
6549;SDS011;15142;48.888;9.134;2023-07-20T01:25:45;3.90;;;1.87;;
6549;SDS011;15142;48.888;9.134;2023-07-20T01:31:36;6.00;;;3.30;;
6549;SDS011;15142;48.888;9.134;2023-07-20T01:34:07;8.73;;;3.30;;
6549;SDS011;15142;48.888;9.134;2023-07-20T01:36:38;2.40;;;1.87;;
6549;SDS011;15142;48.888;9.134;2023-07-20T01:39:07;1.63;;;1.53;;
6549;SDS011;15142;48.888;9.134;2023-07-20T01:41:37;2.90;;;1.80;;
6549;SDS011;15142;48.888;9.134;2023-07-20T01:44:06;4.70;;;2.00;;
6549;SDS011;15142;48.888;9.134;2023-07-20T01:46:39;2.07;;;1.87;;
6549;SDS011;15142;48.888;9.134;2023-07-20T01:49:07;3.80;;;1.80;;
6549;SDS011;15142;48.888;9.134;2023-07-20T01:51:36;6.17;;;1.90;;
6549;SDS011;15142;48.888;9.134;2023-07-20T01:54:05;3.57;;;2.50;;
6549;SDS011;15142;48.888;9.134;2023-07-20T01:56:35;2.20;;;2.10;;
6549;SDS011;15142;48.888;9.134;2023-07-20T01:59:04;4.20;;;2.07;;
6549;SDS011;15142;48.888;9.134;2023-07-20T02:01:33;8.17;;;2.00;;
6549;SDS011;15142;48.888;9.134;2023-07-20T02:04:04;3.33;;;2.10;;
6549;SDS011;15142;48.888;9.134;2023-07-20T02:06:33;4.67;;;1.90;;
6549;SDS011;15142;48.888;9.134;2023-07-20T02:09:01;1.40;;;1.40;;
6549;SDS011;15142;48.888;9.134;2023-07-20T02:11:30;2.07;;;1.93;;
6549;SDS011;15142;48.888;9.134;2023-07-20T02:13:59;2.63;;;2.33;;
6549;SDS011;15142;48.888;9.134;2023-07-20T02:16:27;3.70;;;2.60;;
6549;SDS011;15142;48.888;9.134;2023-07-20T02:18:57;2.60;;;1.20;;
6549;SDS011;15142;48.888;9.134;2023-07-20T02:21:28;3.83;;;1.73;;
6549;SDS011;15142;48.888;9.134;2023-07-20T02:23:56;3.53;;;2.13;;
6549;SDS011;15142;48.888;9.134;2023-07-20T02:26:25;2.27;;;1.73;;
6549;SDS011;15142;48.888;9.134;2023-07-20T02:28:53;4.23;;;2.80;;
6549;SDS011;15142;48.888;9.134;2023-07-20T02:31:22;4.87;;;2.10;;
6549;SDS011;15142;48.888;9.134;2023-07-20T02:33:51;6.20;;;2.20;;
6549;SDS011;15142;48.888;9.134;2023-07-20T02:36:19;2.13;;;1.97;;
6549;SDS011;15142;48.888;9.134;2023-07-20T02:38:50;12.60;;;2.47;;
6549;SDS011;15142;48.888;9.134;2023-07-20T02:41:19;2.67;;;1.90;;
6549;SDS011;15142;48.888;9.134;2023-07-20T02:43:48;5.07;;;2.17;;
6549;SDS011;15142;48.888;9.134;2023-07-20T02:46:16;4.80;;;2.47;;
6549;SDS011;15142;48.888;9.134;2023-07-20T02:48:45;2.43;;;2.23;;
6549;SDS011;15142;48.888;9.134;2023-07-20T02:51:13;5.17;;;2.20;;
6549;SDS011;15142;48.888;9.134;2023-07-20T02:53:42;5.30;;;2.37;;
6549;SDS011;15142;48.888;9.134;2023-07-20T02:56:13;9.73;;;2.40;;
6549;SDS011;15142;48.888;9.134;2023-07-20T02:58:43;7.67;;;2.10;;
6549;SDS011;15142;48.888;9.134;2023-07-20T03:01:12;3.93;;;2.23;;
6549;SDS011;15142;48.888;9.134;2023-07-20T03:03:41;2.47;;;1.90;;
6549;SDS011;15142;48.888;9.134;2023-07-20T03:06:12;2.20;;;2.00;;
6549;SDS011;15142;48.888;9.134;2023-07-20T03:08:41;4.20;;;2.83;;
6549;SDS011;15142;48.888;9.134;2023-07-20T03:11:16;4.60;;;2.80;;
6549;SDS011;15142;48.888;9.134;2023-07-20T03:13:45;7.90;;;2.80;;
6549;SDS011;15142;48.888;9.134;2023-07-20T03:16:15;5.10;;;2.27;;
6549;SDS011;15142;48.888;9.134;2023-07-20T03:18:47;6.83;;;2.10;;
6549;SDS011;15142;48.888;9.134;2023-07-20T03:21:16;14.40;;;8.33;;
6549;SDS011;15142;48.888;9.134;2023-07-20T03:23:44;7.23;;;4.50;;
6549;SDS011;15142;48.888;9.134;2023-07-20T03:26:16;4.30;;;3.30;;
6549;SDS011;15142;48.888;9.134;2023-07-20T03:28:44;4.10;;;2.67;;
6549;SDS011;15142;48.888;9.134;2023-07-20T03:31:13;5.10;;;2.23;;
6549;SDS011;15142;48.888;9.134;2023-07-20T03:33:42;32.40;;;3.33;;
6549;SDS011;15142;48.888;9.134;2023-07-20T03:36:11;3.97;;;2.60;;
6549;SDS011;15142;48.888;9.134;2023-07-20T03:38:40;2.80;;;2.57;;
6549;SDS011;15142;48.888;9.134;2023-07-20T03:41:09;2.47;;;2.27;;
6549;SDS011;15142;48.888;9.134;2023-07-20T03:43:40;4.90;;;2.77;;
6549;SDS011;15142;48.888;9.134;2023-07-20T03:46:08;6.80;;;2.37;;
6549;SDS011;15142;48.888;9.134;2023-07-20T03:48:38;2.23;;;2.03;;
6549;SDS011;15142;48.888;9.134;2023-07-20T03:51:07;6.20;;;2.93;;
6549;SDS011;15142;48.888;9.134;2023-07-20T03:53:35;4.33;;;3.00;;
6549;SDS011;15142;48.888;9.134;2023-07-20T03:56:04;3.20;;;2.47;;
6549;SDS011;15142;48.888;9.134;2023-07-20T03:58:32;3.93;;;2.13;;
6549;SDS011;15142;48.888;9.134;2023-07-20T04:01:03;4.20;;;2.33;;
6549;SDS011;15142;48.888;9.134;2023-07-20T04:03:33;2.77;;;2.57;;
6549;SDS011;15142;48.888;9.134;2023-07-20T04:06:02;3.30;;;2.47;;
6549;SDS011;15142;48.888;9.134;2023-07-20T04:08:30;5.50;;;2.50;;
6549;SDS011;15142;48.888;9.134;2023-07-20T04:11:00;6.73;;;2.57;;
6549;SDS011;15142;48.888;9.134;2023-07-20T04:13:29;3.43;;;2.57;;
6549;SDS011;15142;48.888;9.134;2023-07-20T04:16:00;5.03;;;2.50;;
6549;SDS011;15142;48.888;9.134;2023-07-20T04:18:31;3.37;;;2.97;;
6549;SDS011;15142;48.888;9.134;2023-07-20T04:20:59;3.17;;;2.67;;
6549;SDS011;15142;48.888;9.134;2023-07-20T04:23:28;4.73;;;2.27;;
6549;SDS011;15142;48.888;9.134;2023-07-20T04:25:56;8.17;;;3.20;;
6549;SDS011;15142;48.888;9.134;2023-07-20T04:28:25;4.33;;;2.90;;
6549;SDS011;15142;48.888;9.134;2023-07-20T04:30:54;3.70;;;2.80;;
6549;SDS011;15142;48.888;9.134;2023-07-20T04:33:22;5.43;;;3.10;;
6549;SDS011;15142;48.888;9.134;2023-07-20T04:35:57;2.63;;;2.30;;
6549;SDS011;15142;48.888;9.134;2023-07-20T04:38:35;8.40;;;2.60;;
6549;SDS011;15142;48.888;9.134;2023-07-20T04:41:17;2.20;;;2.10;;
6549;SDS011;15142;48.888;9.134;2023-07-20T04:43:47;3.47;;;2.20;;
6549;SDS011;15142;48.888;9.134;2023-07-20T04:46:26;3.03;;;2.50;;
6549;SDS011;15142;48.888;9.134;2023-07-20T04:48:56;3.03;;;2.07;;
6549;SDS011;15142;48.888;9.134;2023-07-20T04:51:30;3.87;;;1.93;;
6549;SDS011;15142;48.888;9.134;2023-07-20T04:53:58;2.03;;;1.80;;
6549;SDS011;15142;48.888;9.134;2023-07-20T04:56:31;2.10;;;1.90;;
6549;SDS011;15142;48.888;9.134;2023-07-20T04:59:02;2.23;;;1.97;;
6549;SDS011;15142;48.888;9.134;2023-07-20T05:01:31;3.13;;;2.50;;
6549;SDS011;15142;48.888;9.134;2023-07-20T05:03:59;6.90;;;2.30;;
6549;SDS011;15142;48.888;9.134;2023-07-20T05:06:30;2.77;;;2.00;;
6549;SDS011;15142;48.888;9.134;2023-07-20T05:09:00;2.73;;;2.13;;
6549;SDS011;15142;48.888;9.134;2023-07-20T05:11:28;5.57;;;2.27;;
6549;SDS011;15142;48.888;9.134;2023-07-20T05:13:57;2.53;;;2.03;;
6549;SDS011;15142;48.888;9.134;2023-07-20T05:16:26;3.13;;;1.87;;
6549;SDS011;15142;48.888;9.134;2023-07-20T05:18:59;8.10;;;5.20;;
6549;SDS011;15142;48.888;9.134;2023-07-20T05:21:31;3.47;;;2.70;;
6549;SDS011;15142;48.888;9.134;2023-07-20T05:24:00;3.50;;;1.90;;
6549;SDS011;15142;48.888;9.134;2023-07-20T05:26:28;4.97;;;2.60;;
6549;SDS011;15142;48.888;9.134;2023-07-20T05:28:58;5.77;;;2.70;;
6549;SDS011;15142;48.888;9.134;2023-07-20T05:31:26;3.70;;;2.33;;
6549;SDS011;15142;48.888;9.134;2023-07-20T05:33:55;4.57;;;2.13;;
6549;SDS011;15142;48.888;9.134;2023-07-20T05:36:24;3.57;;;2.33;;
6549;SDS011;15142;48.888;9.134;2023-07-20T05:38:55;3.63;;;2.40;;
6549;SDS011;15142;48.888;9.134;2023-07-20T05:41:24;4.20;;;2.63;;
6549;SDS011;15142;48.888;9.134;2023-07-20T05:43:53;5.97;;;3.27;;
6549;SDS011;15142;48.888;9.134;2023-07-20T05:46:21;2.90;;;2.13;;
6549;SDS011;15142;48.888;9.134;2023-07-20T05:48:50;2.63;;;2.43;;
6549;SDS011;15142;48.888;9.134;2023-07-20T05:51:18;3.83;;;2.00;;
6549;SDS011;15142;48.888;9.134;2023-07-20T05:53:47;5.33;;;2.10;;
6549;SDS011;15142;48.888;9.134;2023-07-20T05:56:18;5.90;;;2.37;;
6549;SDS011;15142;48.888;9.134;2023-07-20T05:58:46;10.73;;;2.20;;
6549;SDS011;15142;48.888;9.134;2023-07-20T06:01:15;2.57;;;2.30;;
6549;SDS011;15142;48.888;9.134;2023-07-20T06:03:44;6.60;;;1.70;;
6549;SDS011;15142;48.888;9.134;2023-07-20T06:06:13;6.00;;;2.50;;
6549;SDS011;15142;48.888;9.134;2023-07-20T06:08:41;3.03;;;1.90;;
6549;SDS011;15142;48.888;9.134;2023-07-20T06:11:10;2.60;;;1.70;;
6549;SDS011;15142;48.888;9.134;2023-07-20T06:13:42;3.97;;;1.70;;
6549;SDS011;15142;48.888;9.134;2023-07-20T06:16:11;3.97;;;2.17;;
6549;SDS011;15142;48.888;9.134;2023-07-20T06:18:39;4.77;;;2.80;;
6549;SDS011;15142;48.888;9.134;2023-07-20T06:21:08;6.90;;;2.00;;
6549;SDS011;15142;48.888;9.134;2023-07-20T06:23:37;2.73;;;2.53;;
6549;SDS011;15142;48.888;9.134;2023-07-20T06:26:06;2.20;;;1.80;;
6549;SDS011;15142;48.888;9.134;2023-07-20T06:28:36;4.43;;;2.63;;
6549;SDS011;15142;48.888;9.134;2023-07-20T06:31:07;5.10;;;1.57;;
6549;SDS011;15142;48.888;9.134;2023-07-20T06:33:36;9.23;;;5.33;;
6549;SDS011;15142;48.888;9.134;2023-07-20T06:36:05;9.43;;;3.53;;
6549;SDS011;15142;48.888;9.134;2023-07-20T06:38:34;9.47;;;2.07;;
6549;SDS011;15142;48.888;9.134;2023-07-20T06:41:02;4.90;;;1.30;;
6549;SDS011;15142;48.888;9.134;2023-07-20T06:43:32;4.33;;;2.30;;
6549;SDS011;15142;48.888;9.134;2023-07-20T06:46:00;3.37;;;2.10;;
6549;SDS011;15142;48.888;9.134;2023-07-20T06:48:32;2.17;;;1.83;;
6549;SDS011;15142;48.888;9.134;2023-07-20T06:51:01;5.83;;;1.80;;
6549;SDS011;15142;48.888;9.134;2023-07-20T06:53:29;1.73;;;1.63;;
6549;SDS011;15142;48.888;9.134;2023-07-20T06:55:58;4.30;;;1.80;;
6549;SDS011;15142;48.888;9.134;2023-07-20T06:58:26;3.00;;;1.87;;
6549;SDS011;15142;48.888;9.134;2023-07-20T07:00:55;4.00;;;1.63;;
6549;SDS011;15142;48.888;9.134;2023-07-20T07:03:24;2.93;;;1.93;;
6549;SDS011;15142;48.888;9.134;2023-07-20T07:05:57;4.23;;;2.23;;
6549;SDS011;15142;48.888;9.134;2023-07-20T07:08:25;6.30;;;1.80;;
6549;SDS011;15142;48.888;9.134;2023-07-20T07:10:54;3.73;;;2.00;;
6549;SDS011;15142;48.888;9.134;2023-07-20T07:13:23;5.07;;;1.93;;
6549;SDS011;15142;48.888;9.134;2023-07-20T07:15:52;2.10;;;1.90;;
6549;SDS011;15142;48.888;9.134;2023-07-20T07:18:20;5.77;;;2.13;;
6549;SDS011;15142;48.888;9.134;2023-07-20T07:20:50;9.50;;;3.23;;
6549;SDS011;15142;48.888;9.134;2023-07-20T07:23:22;3.17;;;1.97;;
6549;SDS011;15142;48.888;9.134;2023-07-20T07:25:51;6.27;;;3.77;;
6549;SDS011;15142;48.888;9.134;2023-07-20T07:28:20;13.43;;;2.17;;
6549;SDS011;15142;48.888;9.134;2023-07-20T07:30:48;6.73;;;2.63;;
6549;SDS011;15142;48.888;9.134;2023-07-20T07:33:17;6.90;;;2.63;;
6549;SDS011;15142;48.888;9.134;2023-07-20T07:35:45;2.83;;;2.30;;
6549;SDS011;15142;48.888;9.134;2023-07-20T07:38:14;2.00;;;1.90;;
6549;SDS011;15142;48.888;9.134;2023-07-20T07:40:46;5.60;;;2.07;;
6549;SDS011;15142;48.888;9.134;2023-07-20T07:43:14;7.00;;;3.07;;
6549;SDS011;15142;48.888;9.134;2023-07-20T07:45:43;2.23;;;2.03;;
6549;SDS011;15142;48.888;9.134;2023-07-20T07:48:11;4.30;;;2.17;;
6549;SDS011;15142;48.888;9.134;2023-07-20T07:50:40;10.03;;;3.00;;
6549;SDS011;15142;48.888;9.134;2023-07-20T07:53:09;2.47;;;1.80;;
6549;SDS011;15142;48.888;9.134;2023-07-20T07:55:38;8.10;;;2.60;;
6549;SDS011;15142;48.888;9.134;2023-07-20T07:58:09;5.00;;;2.13;;
6549;SDS011;15142;48.888;9.134;2023-07-20T08:00:37;13.27;;;2.53;;
6549;SDS011;15142;48.888;9.134;2023-07-20T08:03:08;2.80;;;2.17;;
6549;SDS011;15142;48.888;9.134;2023-07-20T08:05:37;2.27;;;1.83;;
6549;SDS011;15142;48.888;9.134;2023-07-20T08:08:05;1.87;;;1.53;;
6549;SDS011;15142;48.888;9.134;2023-07-20T08:10:34;2.00;;;1.80;;
6549;SDS011;15142;48.888;9.134;2023-07-20T08:13:02;2.07;;;1.97;;
6549;SDS011;15142;48.888;9.134;2023-07-20T08:15:33;3.60;;;2.10;;
6549;SDS011;15142;48.888;9.134;2023-07-20T08:18:03;2.13;;;2.03;;
6549;SDS011;15142;48.888;9.134;2023-07-20T08:20:32;5.47;;;1.83;;
6549;SDS011;15142;48.888;9.134;2023-07-20T08:23:01;5.33;;;2.07;;
6549;SDS011;15142;48.888;9.134;2023-07-20T08:25:29;9.37;;;3.80;;
6549;SDS011;15142;48.888;9.134;2023-07-20T08:27:58;2.10;;;2.00;;
6549;SDS011;15142;48.888;9.134;2023-07-20T08:30:38;2.20;;;1.60;;
6549;SDS011;15142;48.888;9.134;2023-07-20T08:33:12;6.57;;;2.40;;
6549;SDS011;15142;48.888;9.134;2023-07-20T08:35:44;2.80;;;1.97;;
6549;SDS011;15142;48.888;9.134;2023-07-20T08:38:13;2.40;;;1.50;;
6549;SDS011;15142;48.888;9.134;2023-07-20T08:40:42;1.43;;;1.43;;
6549;SDS011;15142;48.888;9.134;2023-07-20T08:43:13;6.77;;;1.87;;
6549;SDS011;15142;48.888;9.134;2023-07-20T08:45:44;2.53;;;1.90;;
6549;SDS011;15142;48.888;9.134;2023-07-20T08:48:13;2.87;;;1.63;;
6549;SDS011;15142;48.888;9.134;2023-07-20T08:50:42;4.63;;;2.27;;
6549;SDS011;15142;48.888;9.134;2023-07-20T08:53:11;4.00;;;1.90;;
6549;SDS011;15142;48.888;9.134;2023-07-20T08:55:41;1.53;;;1.43;;
6549;SDS011;15142;48.888;9.134;2023-07-20T08:58:12;4.17;;;1.50;;
6549;SDS011;15142;48.888;9.134;2023-07-20T09:00:41;2.43;;;1.30;;
6549;SDS011;15142;48.888;9.134;2023-07-20T09:03:16;2.93;;;1.80;;
6549;SDS011;15142;48.888;9.134;2023-07-20T09:05:44;1.87;;;1.77;;
6549;SDS011;15142;48.888;9.134;2023-07-20T09:08:13;2.00;;;1.47;;
6549;SDS011;15142;48.888;9.134;2023-07-20T09:10:42;3.60;;;1.80;;
6549;SDS011;15142;48.888;9.134;2023-07-20T09:13:13;4.53;;;1.60;;
6549;SDS011;15142;48.888;9.134;2023-07-20T09:15:49;3.27;;;2.07;;
6549;SDS011;15142;48.888;9.134;2023-07-20T09:18:24;3.93;;;1.73;;
6549;SDS011;15142;48.888;9.134;2023-07-20T09:20:57;4.70;;;2.10;;
6549;SDS011;15142;48.888;9.134;2023-07-20T09:23:30;3.23;;;2.20;;
6549;SDS011;15142;48.888;9.134;2023-07-20T09:26:00;2.40;;;1.77;;
6549;SDS011;15142;48.888;9.134;2023-07-20T09:28:29;2.70;;;1.90;;
6549;SDS011;15142;48.888;9.134;2023-07-20T09:31:00;2.60;;;1.70;;
6549;SDS011;15142;48.888;9.134;2023-07-20T09:33:44;1.50;;;1.40;;
6549;SDS011;15142;48.888;9.134;2023-07-20T09:36:13;3.57;;;1.40;;
6549;SDS011;15142;48.888;9.134;2023-07-20T09:38:42;3.47;;;1.50;;
6549;SDS011;15142;48.888;9.134;2023-07-20T09:41:12;1.27;;;1.03;;
6549;SDS011;15142;48.888;9.134;2023-07-20T09:43:43;4.17;;;1.20;;
6549;SDS011;15142;48.888;9.134;2023-07-20T09:46:16;3.07;;;1.70;;
6549;SDS011;15142;48.888;9.134;2023-07-20T09:48:51;2.30;;;1.70;;
6549;SDS011;15142;48.888;9.134;2023-07-20T09:51:20;5.73;;;1.23;;
6549;SDS011;15142;48.888;9.134;2023-07-20T09:53:50;1.83;;;1.07;;
6549;SDS011;15142;48.888;9.134;2023-07-20T09:56:21;1.60;;;1.17;;
6549;SDS011;15142;48.888;9.134;2023-07-20T09:58:51;3.70;;;1.60;;
6549;SDS011;15142;48.888;9.134;2023-07-20T10:01:22;1.57;;;1.13;;
6549;SDS011;15142;48.888;9.134;2023-07-20T10:03:53;0.87;;;0.77;;
6549;SDS011;15142;48.888;9.134;2023-07-20T10:06:24;0.87;;;0.83;;
6549;SDS011;15142;48.888;9.134;2023-07-20T10:08:55;2.43;;;1.20;;
6549;SDS011;15142;48.888;9.134;2023-07-20T10:11:29;1.33;;;1.10;;
6549;SDS011;15142;48.888;9.134;2023-07-20T10:13:59;3.50;;;1.00;;
6549;SDS011;15142;48.888;9.134;2023-07-20T10:16:35;1.90;;;1.33;;
6549;SDS011;15142;48.888;9.134;2023-07-20T10:19:05;7.20;;;1.73;;
6549;SDS011;15142;48.888;9.134;2023-07-20T10:21:35;1.40;;;1.30;;
6549;SDS011;15142;48.888;9.134;2023-07-20T10:24:08;1.80;;;1.70;;
6549;SDS011;15142;48.888;9.134;2023-07-20T10:26:37;1.43;;;1.13;;
6549;SDS011;15142;48.888;9.134;2023-07-20T10:29:06;2.80;;;1.40;;
6549;SDS011;15142;48.888;9.134;2023-07-20T10:31:38;2.00;;;1.33;;
6549;SDS011;15142;48.888;9.134;2023-07-20T10:34:07;1.20;;;1.10;;
6549;SDS011;15142;48.888;9.134;2023-07-20T10:36:43;1.70;;;1.60;;
6549;SDS011;15142;48.888;9.134;2023-07-20T10:39:23;3.07;;;1.37;;
6549;SDS011;15142;48.888;9.134;2023-07-20T10:41:59;3.23;;;1.27;;
6549;SDS011;15142;48.888;9.134;2023-07-20T10:44:29;8.00;;;1.37;;
6549;SDS011;15142;48.888;9.134;2023-07-20T10:47:01;1.77;;;1.23;;
6549;SDS011;15142;48.888;9.134;2023-07-20T10:49:32;1.90;;;1.33;;
6549;SDS011;15142;48.888;9.134;2023-07-20T10:52:03;1.00;;;1.00;;
6549;SDS011;15142;48.888;9.134;2023-07-20T10:54:34;1.43;;;1.33;;
6549;SDS011;15142;48.888;9.134;2023-07-20T10:59:50;7.40;;;1.63;;
6549;SDS011;15142;48.888;9.134;2023-07-20T11:02:23;2.30;;;1.00;;
6549;SDS011;15142;48.888;9.134;2023-07-20T11:04:52;1.93;;;1.83;;
6549;SDS011;15142;48.888;9.134;2023-07-20T11:07:35;1.60;;;1.50;;
6549;SDS011;15142;48.888;9.134;2023-07-20T11:10:15;1.07;;;1.07;;
6549;SDS011;15142;48.888;9.134;2023-07-20T11:12:54;1.07;;;0.97;;
6549;SDS011;15142;48.888;9.134;2023-07-20T11:15:47;1.10;;;1.10;;
6549;SDS011;15142;48.888;9.134;2023-07-20T11:18:18;1.27;;;1.17;;
6549;SDS011;15142;48.888;9.134;2023-07-20T11:20:49;1.67;;;1.20;;
6549;SDS011;15142;48.888;9.134;2023-07-20T11:23:19;2.33;;;1.27;;
6549;SDS011;15142;48.888;9.134;2023-07-20T11:25:48;1.00;;;0.97;;
6549;SDS011;15142;48.888;9.134;2023-07-20T11:28:17;1.33;;;1.10;;
6549;SDS011;15142;48.888;9.134;2023-07-20T11:30:49;1.27;;;1.17;;
6549;SDS011;15142;48.888;9.134;2023-07-20T11:33:23;1.47;;;1.40;;
6549;SDS011;15142;48.888;9.134;2023-07-20T11:35:51;1.57;;;1.40;;
6549;SDS011;15142;48.888;9.134;2023-07-20T11:38:20;1.60;;;1.10;;
6549;SDS011;15142;48.888;9.134;2023-07-20T11:40:49;2.10;;;1.00;;
6549;SDS011;15142;48.888;9.134;2023-07-20T11:43:17;15.13;;;1.80;;
6549;SDS011;15142;48.888;9.134;2023-07-20T11:45:48;6.33;;;2.27;;
6549;SDS011;15142;48.888;9.134;2023-07-20T11:48:17;1.20;;;1.00;;
6549;SDS011;15142;48.888;9.134;2023-07-20T11:50:48;2.13;;;1.80;;
6549;SDS011;15142;48.888;9.134;2023-07-20T11:53:17;2.27;;;1.10;;
6549;SDS011;15142;48.888;9.134;2023-07-20T11:55:46;7.43;;;1.60;;
6549;SDS011;15142;48.888;9.134;2023-07-20T11:58:15;2.33;;;0.90;;
6549;SDS011;15142;48.888;9.134;2023-07-20T12:00:47;1.27;;;1.27;;
6549;SDS011;15142;48.888;9.134;2023-07-20T12:03:15;1.50;;;1.30;;
6549;SDS011;15142;48.888;9.134;2023-07-20T12:05:44;4.27;;;2.00;;
6549;SDS011;15142;48.888;9.134;2023-07-20T12:08:15;3.07;;;1.50;;
6549;SDS011;15142;48.888;9.134;2023-07-20T12:10:45;2.23;;;1.10;;
6549;SDS011;15142;48.888;9.134;2023-07-20T12:13:13;2.20;;;1.50;;
6549;SDS011;15142;48.888;9.134;2023-07-20T12:15:42;0.83;;;0.83;;
6549;SDS011;15142;48.888;9.134;2023-07-20T12:18:11;0.90;;;0.70;;
6549;SDS011;15142;48.888;9.134;2023-07-20T12:20:40;1.37;;;1.23;;
6549;SDS011;15142;48.888;9.134;2023-07-20T12:23:10;1.03;;;1.00;;
6549;SDS011;15142;48.888;9.134;2023-07-20T12:25:42;3.03;;;1.10;;
6549;SDS011;15142;48.888;9.134;2023-07-20T12:28:13;1.00;;;1.00;;
6549;SDS011;15142;48.888;9.134;2023-07-20T12:30:44;7.57;;;1.07;;
6549;SDS011;15142;48.888;9.134;2023-07-20T12:33:21;6.07;;;1.07;;
6549;SDS011;15142;48.888;9.134;2023-07-20T12:35:50;4.10;;;0.77;;
6549;SDS011;15142;48.888;9.134;2023-07-20T12:38:21;2.87;;;1.00;;
6549;SDS011;15142;48.888;9.134;2023-07-20T12:40:52;2.10;;;1.20;;
6549;SDS011;15142;48.888;9.134;2023-07-20T12:43:22;5.13;;;1.33;;
6549;SDS011;15142;48.888;9.134;2023-07-20T12:45:50;3.87;;;0.97;;
6549;SDS011;15142;48.888;9.134;2023-07-20T12:48:20;1.53;;;0.70;;
6549;SDS011;15142;48.888;9.134;2023-07-20T12:50:48;7.17;;;1.30;;
6549;SDS011;15142;48.888;9.134;2023-07-20T12:53:17;2.63;;;1.00;;
6549;SDS011;15142;48.888;9.134;2023-07-20T12:55:47;1.80;;;1.10;;
6549;SDS011;15142;48.888;9.134;2023-07-20T12:58:18;3.60;;;1.17;;
6549;SDS011;15142;48.888;9.134;2023-07-20T13:00:46;4.77;;;1.20;;
6549;SDS011;15142;48.888;9.134;2023-07-20T13:03:15;0.83;;;0.83;;
6549;SDS011;15142;48.888;9.134;2023-07-20T13:05:44;2.10;;;1.07;;
6549;SDS011;15142;48.888;9.134;2023-07-20T13:08:13;1.63;;;0.97;;
6549;SDS011;15142;48.888;9.134;2023-07-20T13:10:43;2.07;;;1.37;;
6549;SDS011;15142;48.888;9.134;2023-07-20T13:13:12;2.13;;;1.00;;
6549;SDS011;15142;48.888;9.134;2023-07-20T13:15:43;1.87;;;1.43;;
6549;SDS011;15142;48.888;9.134;2023-07-20T13:18:13;2.60;;;1.83;;
6549;SDS011;15142;48.888;9.134;2023-07-20T13:20:43;2.30;;;0.80;;
6549;SDS011;15142;48.888;9.134;2023-07-20T13:23:12;2.20;;;0.97;;
6549;SDS011;15142;48.888;9.134;2023-07-20T13:25:40;1.20;;;1.10;;
6549;SDS011;15142;48.888;9.134;2023-07-20T13:28:09;1.10;;;1.10;;
6549;SDS011;15142;48.888;9.134;2023-07-20T13:30:38;3.63;;;1.10;;
6549;SDS011;15142;48.888;9.134;2023-07-20T13:33:09;1.60;;;1.50;;
6549;SDS011;15142;48.888;9.134;2023-07-20T13:35:37;3.40;;;1.50;;
6549;SDS011;15142;48.888;9.134;2023-07-20T13:38:07;1.87;;;1.07;;
6549;SDS011;15142;48.888;9.134;2023-07-20T13:40:35;1.67;;;1.00;;
6549;SDS011;15142;48.888;9.134;2023-07-20T13:43:05;1.30;;;1.20;;
6549;SDS011;15142;48.888;9.134;2023-07-20T13:45:34;2.50;;;0.97;;
6549;SDS011;15142;48.888;9.134;2023-07-20T13:48:02;2.13;;;1.30;;
6549;SDS011;15142;48.888;9.134;2023-07-20T13:50:33;0.63;;;0.63;;
6549;SDS011;15142;48.888;9.134;2023-07-20T13:53:02;2.53;;;1.00;;
6549;SDS011;15142;48.888;9.134;2023-07-20T13:55:31;1.50;;;1.40;;
6549;SDS011;15142;48.888;9.134;2023-07-20T13:58:01;2.47;;;1.23;;
6549;SDS011;15142;48.888;9.134;2023-07-20T14:00:30;0.80;;;0.80;;
6549;SDS011;15142;48.888;9.134;2023-07-20T14:03:00;0.70;;;0.70;;
6549;SDS011;15142;48.888;9.134;2023-07-20T14:05:28;0.90;;;0.90;;
6549;SDS011;15142;48.888;9.134;2023-07-20T14:08:00;1.50;;;1.07;;
6549;SDS011;15142;48.888;9.134;2023-07-20T14:10:28;1.00;;;0.90;;
6549;SDS011;15142;48.888;9.134;2023-07-20T14:12:57;1.13;;;0.70;;
6549;SDS011;15142;48.888;9.134;2023-07-20T14:15:25;1.70;;;1.20;;
6549;SDS011;15142;48.888;9.134;2023-07-20T14:17:53;1.17;;;0.80;;
6549;SDS011;15142;48.888;9.134;2023-07-20T14:20:22;0.90;;;0.90;;
6549;SDS011;15142;48.888;9.134;2023-07-20T14:22:51;1.60;;;1.10;;
6549;SDS011;15142;48.888;9.134;2023-07-20T14:25:22;0.80;;;0.80;;
6549;SDS011;15142;48.888;9.134;2023-07-20T14:27:50;0.90;;;0.90;;
6549;SDS011;15142;48.888;9.134;2023-07-20T14:30:19;0.90;;;0.90;;
6549;SDS011;15142;48.888;9.134;2023-07-20T14:32:48;1.27;;;1.20;;
6549;SDS011;15142;48.888;9.134;2023-07-20T14:35:16;0.90;;;0.90;;
6549;SDS011;15142;48.888;9.134;2023-07-20T14:37:45;1.30;;;1.30;;
6549;SDS011;15142;48.888;9.134;2023-07-20T14:40:15;1.50;;;1.40;;
6549;SDS011;15142;48.888;9.134;2023-07-20T14:42:46;3.13;;;1.23;;
6549;SDS011;15142;48.888;9.134;2023-07-20T14:45:16;2.47;;;0.97;;
6549;SDS011;15142;48.888;9.134;2023-07-20T14:47:44;1.77;;;1.20;;
6549;SDS011;15142;48.888;9.134;2023-07-20T14:50:18;1.53;;;1.33;;
6549;SDS011;15142;48.888;9.134;2023-07-20T14:52:47;3.20;;;1.20;;
6549;SDS011;15142;48.888;9.134;2023-07-20T14:55:16;2.50;;;1.10;;
6549;SDS011;15142;48.888;9.134;2023-07-20T14:57:47;1.40;;;1.30;;
6549;SDS011;15142;48.888;9.134;2023-07-20T15:00:17;1.83;;;1.47;;
6549;SDS011;15142;48.888;9.134;2023-07-20T15:02:45;0.90;;;0.90;;
6549;SDS011;15142;48.888;9.134;2023-07-20T15:05:20;1.03;;;1.03;;
6549;SDS011;15142;48.888;9.134;2023-07-20T15:07:49;2.27;;;1.27;;
6549;SDS011;15142;48.888;9.134;2023-07-20T15:10:18;2.10;;;0.93;;
6549;SDS011;15142;48.888;9.134;2023-07-20T15:12:50;2.10;;;0.90;;
6549;SDS011;15142;48.888;9.134;2023-07-20T15:15:18;1.93;;;1.43;;
6549;SDS011;15142;48.888;9.134;2023-07-20T15:17:47;7.63;;;1.33;;
6549;SDS011;15142;48.888;9.134;2023-07-20T15:20:16;1.13;;;1.03;;
6549;SDS011;15142;48.888;9.134;2023-07-20T15:22:45;4.73;;;1.73;;
6549;SDS011;15142;48.888;9.134;2023-07-20T15:25:13;0.90;;;0.90;;